This is the latest recevied weather packets stored in our database for station/object W4CAT-13. If no packets are shown the sender has not sent any weather packets the latest 10 day(s).
| Time | Temp. | Humidity | Pressure | Rain* | Wind** | Luminosity | Snow |
|---|---|---|---|---|---|---|---|
| 1777747982 | 17.22° C | 40% | 979 hPa | 0 mm | - | - | - |
| 1777747052 | 16.11° C | 42% | 979.3 hPa | 0 mm | - | - | - |
| 1777746122 | 17.22° C | 38% | 979.7 hPa | 0 mm | - | - | - |
| 1777745192 | 17.22° C | 37% | 979.7 hPa | 0 mm | - | - | - |
| 1777744262 | 17.22° C | 38% | 979.7 hPa | 0 mm | - | - | - |
| 1777743332 | 17.22° C | 38% | 979.7 hPa | 0 mm | - | - | - |
| 1777742402 | 16.67° C | 40% | 979.7 hPa | 0 mm | - | - | - |
| 1777741472 | 17.22° C | 39% | 979.7 hPa | 0 mm | - | - | - |
| 1777740542 | 16.67° C | 43% | 980 hPa | 0 mm | - | - | - |
| 1777739612 | 16.67° C | 37% | 980 hPa | 0 mm | - | - | - |
| 1777738711 | 16.11° C | 42% | 980.4 hPa | 0 mm | - | - | - |
| 1777737812 | 15.56° C | 42% | 980.4 hPa | 0 mm | - | - | - |
| 1777736912 | 15.56° C | 43% | 980.4 hPa | 0 mm | - | - | - |
| 1777736038 | 15° C | 41% | 980.4 hPa | 0 mm | - | - | - |
| 1777735981 | 15° C | 41% | 980.4 hPa | 0 mm | - | - | - |
| 1777735051 | 15.56° C | 41% | 980.4 hPa | 0 mm | - | - | - |
| 1777734121 | 15° C | 48% | 980 hPa | 0 mm | - | - | - |
| 1777733221 | 14.44° C | 47% | 980 hPa | 0 mm | - | - | - |
| 1777732292 | 13.89° C | 47% | 980 hPa | 0 mm | - | - | - |
| 1777731362 | 12.78° C | 54% | 980.4 hPa | 0 mm | - | - | - |
| 1777730432 | 11.67° C | 54% | 980 hPa | 0 mm | - | - | - |
| 1777729507 | 11.67° C | 56% | 980 hPa | 0 mm | - | - | - |
| 1777728572 | 11.67° C | 59% | 980 hPa | 0 mm | - | - | - |
| 1777727642 | 10.56° C | 65% | 980 hPa | 0 mm | - | - | - |
| 1777726742 | 8.89° C | 76% | 980 hPa | 0 mm | - | - | - |
* Rain latest hour (hover to see other rain measurements)
** Current wind speed in m/s (hover to see current wind gust speed)